Time;durP1;ratioP1;P1;durP2;ratioP2;P2;SDS_P1;SDS_P2;PMS_P1;PMS_P2;Temp;Humidity;BMP_temperature;BMP_pressure;BME280_temperature;BME280_humidity;BME280_pressure;Samples;Min_cycle;Max_cycle;Signal;HPM_P1;HPM_P2
2021/07/27 00:02:17;;;;;;;4.83;2.83;;;;;;;;;;5051637;28;20033;-67
2021/07/27 00:04:44;;;;;;;6.93;3.07;;;;;;;;;;5052270;28;20029;-67
2021/07/27 00:07:10;;;;;;;9.37;3.57;;;;;;;;;;5052221;28;20040;-67
2021/07/27 00:09:37;;;;;;;4.33;2.70;;;;;;;;;;5047062;28;20020;-67
2021/07/27 00:12:04;;;;;;;5.00;2.20;;;;;;;;;;5047267;28;20504;-67
2021/07/27 00:14:31;;;;;;;5.37;2.70;;;;;;;;;;5033106;28;20539;-67
2021/07/27 00:16:58;;;;;;;4.13;2.73;;;;;;;;;;5027256;28;20392;-67
2021/07/27 00:19:24;;;;;;;7.90;3.30;;;;;;;;;;5031349;28;20029;-67
2021/07/27 00:21:51;;;;;;;6.37;3.27;;;;;;;;;;5032470;28;20025;-67
2021/07/27 00:24:19;;;;;;;5.40;3.50;;;;;;;;;;5032548;28;20498;-67
2021/07/27 00:26:46;;;;;;;8.77;3.40;;;;;;;;;;5032446;28;20067;-67
2021/07/27 00:29:13;;;;;;;6.23;3.43;;;;;;;;;;5032522;28;20029;-67
2021/07/27 00:31:41;;;;;;;8.50;3.53;;;;;;;;;;5027630;28;20029;-67
2021/07/27 00:34:07;;;;;;;5.17;2.77;;;;;;;;;;5027097;28;20025;-67
2021/07/27 00:36:34;;;;;;;8.90;3.13;;;;;;;;;;5026812;28;20017;-67
2021/07/27 00:39:01;;;;;;;5.10;2.60;;;;;;;;;;5027148;28;20029;-67
2021/07/27 00:41:28;;;;;;;10.80;3.10;;;;;;;;;;5030643;28;20440;-67
2021/07/27 00:43:55;;;;;;;7.57;3.63;;;;;;;;;;5039639;28;20056;-67
2021/07/27 00:46:21;;;;;;;6.63;2.97;;;;;;;;;;5051986;28;20115;-67
2021/07/27 00:48:48;;;;;;;9.47;3.53;;;;;;;;;;5047374;28;20467;-67
2021/07/27 00:51:15;;;;;;;6.27;2.80;;;;;;;;;;5052102;28;20025;-67
2021/07/27 00:53:42;;;;;;;6.40;2.57;;;;;;;;;;5048298;28;20037;-67
2021/07/27 00:56:09;;;;;;;8.93;3.00;;;;;;;;;;5046580;28;20029;-67
2021/07/27 00:58:36;;;;;;;9.97;2.83;;;;;;;;;;5046538;28;20395;-67
2021/07/27 01:01:04;;;;;;;7.07;2.97;;;;;;;;;;5029590;28;20052;-67
2021/07/27 01:03:30;;;;;;;9.40;3.37;;;;;;;;;;5046802;28;20017;-67
2021/07/27 01:05:59;;;;;;;8.53;3.77;;;;;;;;;;5035960;28;20532;-67
2021/07/27 01:08:26;;;;;;;8.27;3.50;;;;;;;;;;5036105;28;20178;-67
2021/07/27 01:10:53;;;;;;;9.30;3.67;;;;;;;;;;5036062;28;20024;-67
2021/07/27 01:13:20;;;;;;;8.40;3.93;;;;;;;;;;5035428;28;20551;-67
2021/07/27 01:15:47;;;;;;;16.23;4.73;;;;;;;;;;5033239;28;20558;-67
2021/07/27 01:18:21;;;;;;;35.00;10.83;;;;;;;;;;5030782;28;20371;-67
2021/07/27 01:37:35;;;;;;;6.57;3.10;;;;;;;;;;5054225;28;20082;-67
2021/07/27 01:40:02;;;;;;;14.40;4.17;;;;;;;;;;5050309;28;20059;-67
2021/07/27 01:42:28;;;;;;;5.47;3.13;;;;;;;;;;5050232;28;20024;-67
2021/07/27 01:44:59;;;;;;;8.90;3.40;;;;;;;;;;5050022;28;20024;-67
2021/07/27 01:47:26;;;;;;;5.67;3.33;;;;;;;;;;5050417;28;20091;-67
2021/07/27 01:49:53;;;;;;;7.50;4.33;;;;;;;;;;5055199;28;20112;-67
2021/07/27 01:52:23;;;;;;;11.50;3.90;;;;;;;;;;5054392;28;20356;-67
2021/07/27 01:54:54;;;;;;;5.33;2.63;;;;;;;;;;5043537;28;20055;-64
2021/07/27 01:57:22;;;;;;;8.90;3.87;;;;;;;;;;5022695;28;20014;-64
2021/07/27 01:59:58;;;;;;;12.20;3.43;;;;;;;;;;5025269;28;20103;-65
2021/07/27 02:02:25;;;;;;;7.10;3.47;;;;;;;;;;5029368;28;20032;-65
2021/07/27 02:04:55;;;;;;;9.80;4.23;;;;;;;;;;5041043;28;21062;-65
2021/07/27 02:07:22;;;;;;;10.47;4.60;;;;;;;;;;5049404;28;20108;-65
2021/07/27 02:09:51;;;;;;;11.37;4.03;;;;;;;;;;5044161;28;20021;-64
2021/07/27 02:12:20;;;;;;;9.13;4.33;;;;;;;;;;5028659;28;20109;-64
2021/07/27 02:15:06;;;;;;;7.60;4.00;;;;;;;;;;5034439;28;20035;-64
2021/07/27 02:17:33;;;;;;;9.53;3.13;;;;;;;;;;5028388;28;20029;-68
2021/07/27 02:20:00;;;;;;;7.73;3.80;;;;;;;;;;5027133;28;20076;-68
2021/07/27 02:22:28;;;;;;;5.93;3.33;;;;;;;;;;5031586;28;20901;-64
2021/07/27 02:24:55;;;;;;;7.43;3.30;;;;;;;;;;5029020;28;20021;-67
2021/07/27 02:27:22;;;;;;;8.60;3.43;;;;;;;;;;5028834;28;20037;-68
2021/07/27 02:29:49;;;;;;;6.67;2.93;;;;;;;;;;5029000;28;20039;-67
2021/07/27 02:32:16;;;;;;;8.03;3.63;;;;;;;;;;5029092;28;20538;-67
2021/07/27 02:34:43;;;;;;;7.57;3.20;;;;;;;;;;5028511;28;20026;-67
2021/07/27 02:37:10;;;;;;;7.43;3.63;;;;;;;;;;5022374;28;20025;-67
2021/07/27 02:39:38;;;;;;;12.30;3.23;;;;;;;;;;5033667;28;20472;-67
2021/07/27 02:42:05;;;;;;;7.70;3.03;;;;;;;;;;5033705;28;20029;-67
2021/07/27 02:44:32;;;;;;;6.20;3.23;;;;;;;;;;5033522;28;20017;-67
2021/07/27 02:46:58;;;;;;;10.93;2.93;;;;;;;;;;5028655;28;20110;-67
2021/07/27 02:49:25;;;;;;;7.67;3.37;;;;;;;;;;5028556;28;20575;-66
2021/07/27 02:51:52;;;;;;;5.00;2.97;;;;;;;;;;5028507;28;20025;-64
2021/07/27 02:54:19;;;;;;;6.77;4.40;;;;;;;;;;5028653;28;20026;-64
2021/07/27 02:56:46;;;;;;;7.33;3.20;;;;;;;;;;5032881;28;20045;-63
2021/07/27 02:59:12;;;;;;;9.63;3.50;;;;;;;;;;5033893;28;20485;-64
2021/07/27 03:01:39;;;;;;;5.57;3.13;;;;;;;;;;5033377;28;20574;-64
2021/07/27 03:04:06;;;;;;;7.07;2.70;;;;;;;;;;5014022;28;20021;-64
2021/07/27 03:06:33;;;;;;;6.50;3.40;;;;;;;;;;5013804;28;20497;-64
2021/07/27 03:11:27;;;;;;;10.63;3.90;;;;;;;;;;5008780;28;20030;-66
2021/07/27 03:13:54;;;;;;;7.13;3.47;;;;;;;;;;5029249;28;20380;-67
2021/07/27 03:16:22;;;;;;;6.00;3.07;;;;;;;;;;5047934;28;20035;-65
2021/07/27 03:18:51;;;;;;;4.87;3.10;;;;;;;;;;5051860;28;20472;-66
2021/07/27 03:21:19;;;;;;;4.50;2.40;;;;;;;;;;5053334;28;20029;-66
2021/07/27 03:23:46;;;;;;;6.87;3.20;;;;;;;;;;5052649;28;20471;-66
2021/07/27 03:26:13;;;;;;;5.47;2.43;;;;;;;;;;5045344;28;20030;-66
2021/07/27 03:28:40;;;;;;;7.97;2.93;;;;;;;;;;5033221;28;20097;-66
2021/07/27 03:31:11;;;;;;;4.23;2.10;;;;;;;;;;5029196;28;20033;-66
2021/07/27 03:33:40;;;;;;;7.33;2.37;;;;;;;;;;5027913;28;20032;-66
2021/07/27 03:36:09;;;;;;;5.10;2.37;;;;;;;;;;5010316;28;20034;-66
2021/07/27 03:38:50;;;;;;;5.37;2.27;;;;;;;;;;5010010;28;20041;-66
2021/07/27 03:41:17;;;;;;;7.57;2.87;;;;;;;;;;5031603;28;20028;-67
2021/07/27 03:43:44;;;;;;;7.47;3.40;;;;;;;;;;5032528;28;20033;-67
2021/07/27 03:46:11;;;;;;;7.00;3.17;;;;;;;;;;5031819;28;20037;-66
2021/07/27 03:48:38;;;;;;;5.43;3.37;;;;;;;;;;5032890;28;20044;-65
2021/07/27 03:51:06;;;;;;;7.40;3.10;;;;;;;;;;5032918;28;20022;-66
2021/07/27 03:53:33;;;;;;;5.03;2.83;;;;;;;;;;5011783;28;20037;-66
2021/07/27 03:56:00;;;;;;;4.93;3.23;;;;;;;;;;5027445;28;20099;-66
2021/07/27 03:58:27;;;;;;;7.47;3.27;;;;;;;;;;5027501;28;20112;-66
2021/07/27 04:00:54;;;;;;;11.30;3.03;;;;;;;;;;5027407;28;20377;-67
2021/07/27 04:03:21;;;;;;;7.60;3.23;;;;;;;;;;5018722;28;20477;-65
2021/07/27 04:05:48;;;;;;;9.37;4.67;;;;;;;;;;5012608;28;20057;-67
2021/07/27 04:08:15;;;;;;;6.27;3.13;;;;;;;;;;5012902;28;20057;-66
2021/07/27 04:10:42;;;;;;;4.60;3.10;;;;;;;;;;5012895;28;20026;-66
2021/07/27 04:13:10;;;;;;;6.43;3.30;;;;;;;;;;5012948;28;20064;-65
2021/07/27 04:15:37;;;;;;;7.70;3.60;;;;;;;;;;4992377;28;20105;-66
2021/07/27 04:18:04;;;;;;;6.70;3.30;;;;;;;;;;4990142;28;20476;-66
2021/07/27 04:20:31;;;;;;;7.37;3.37;;;;;;;;;;5007029;28;20044;-65
2021/07/27 04:23:00;;;;;;;4.70;2.77;;;;;;;;;;5007599;28;20534;-66
2021/07/27 04:25:31;;;;;;;8.63;4.27;;;;;;;;;;5009293;28;20036;-65
2021/07/27 04:28:01;;;;;;;8.07;3.10;;;;;;;;;;5012539;28;20129;-65
2021/07/27 04:30:28;;;;;;;7.43;3.50;;;;;;;;;;5012400;28;20093;-65
2021/07/27 04:32:55;;;;;;;6.60;3.20;;;;;;;;;;5019638;28;20022;-66
2021/07/27 04:35:23;;;;;;;7.53;3.57;;;;;;;;;;5014257;28;20078;-66
2021/07/27 04:37:53;;;;;;;5.17;3.20;;;;;;;;;;5011135;28;20031;-66
2021/07/27 04:40:21;;;;;;;6.30;3.87;;;;;;;;;;5027070;28;20029;-65
2021/07/27 04:42:48;;;;;;;9.10;3.27;;;;;;;;;;5026929;28;20029;-65
2021/07/27 04:45:18;;;;;;;6.43;3.23;;;;;;;;;;5026724;28;20084;-66
2021/07/27 04:47:46;;;;;;;4.23;3.00;;;;;;;;;;5028742;28;20025;-66
2021/07/27 04:50:15;;;;;;;6.83;3.57;;;;;;;;;;5031011;28;20512;-65
2021/07/27 04:52:49;;;;;;;5.43;3.27;;;;;;;;;;5031733;28;20032;-65
2021/07/27 04:55:16;;;;;;;8.63;2.93;;;;;;;;;;5031948;28;20132;-65
2021/07/27 04:57:44;;;;;;;4.40;2.80;;;;;;;;;;5031847;28;20064;-65
2021/07/27 05:00:14;;;;;;;7.50;3.10;;;;;;;;;;5029717;28;20044;-65
2021/07/27 05:02:41;;;;;;;5.87;3.33;;;;;;;;;;5021310;28;20528;-65
2021/07/27 05:05:08;;;;;;;7.17;3.67;;;;;;;;;;5006814;28;20030;-64
2021/07/27 05:07:35;;;;;;;6.60;3.47;;;;;;;;;;5006686;28;20449;-65
2021/07/27 05:10:04;;;;;;;5.03;3.20;;;;;;;;;;5008480;28;20057;-65
2021/07/27 05:12:31;;;;;;;6.43;3.50;;;;;;;;;;5011947;28;20030;-65
2021/07/27 05:14:58;;;;;;;8.07;3.47;;;;;;;;;;5012122;28;20033;-65
2021/07/27 05:17:24;;;;;;;8.73;3.90;;;;;;;;;;5012102;28;20109;-66
2021/07/27 05:19:54;;;;;;;7.90;3.60;;;;;;;;;;5011957;28;20120;-65
2021/07/27 05:22:23;;;;;;;5.63;3.40;;;;;;;;;;5010085;28;20088;-65
2021/07/27 05:24:51;;;;;;;7.07;3.30;;;;;;;;;;5006827;28;20080;-65
2021/07/27 05:27:20;;;;;;;3.47;2.60;;;;;;;;;;4989277;28;20042;-65
2021/07/27 05:29:49;;;;;;;6.77;3.27;;;;;;;;;;5006600;28;20028;-65
2021/07/27 05:32:16;;;;;;;5.97;3.37;;;;;;;;;;5008889;28;20485;-65
2021/07/27 05:34:43;;;;;;;5.20;3.20;;;;;;;;;;5013672;28;20021;-65
2021/07/27 05:37:10;;;;;;;5.30;3.53;;;;;;;;;;5031784;28;20048;-65
2021/07/27 05:39:37;;;;;;;4.90;3.63;;;;;;;;;;5031530;28;20017;-64
2021/07/27 05:42:04;;;;;;;4.80;3.00;;;;;;;;;;5031454;28;20030;-65
2021/07/27 05:44:31;;;;;;;6.83;3.47;;;;;;;;;;5030596;28;20544;-65
2021/07/27 05:47:00;;;;;;;7.40;3.30;;;;;;;;;;5026488;28;20042;-65
2021/07/27 05:49:27;;;;;;;6.17;3.50;;;;;;;;;;5029977;28;20033;-65
2021/07/27 05:51:54;;;;;;;5.80;3.40;;;;;;;;;;5029798;28;20029;-66
2021/07/27 05:54:22;;;;;;;6.40;3.10;;;;;;;;;;5029794;28;20112;-65
2021/07/27 05:56:49;;;;;;;6.73;3.33;;;;;;;;;;5034910;28;20022;-66
2021/07/27 05:59:17;;;;;;;4.60;2.80;;;;;;;;;;5034974;28;20040;-63
2021/07/27 06:01:44;;;;;;;5.30;3.07;;;;;;;;;;5034833;28;20014;-65
2021/07/27 06:04:11;;;;;;;7.47;2.90;;;;;;;;;;5017784;28;20030;-65
2021/07/27 06:06:38;;;;;;;6.10;3.60;;;;;;;;;;5014620;28;20031;-65
2021/07/27 06:09:10;;;;;;;6.07;4.03;;;;;;;;;;5009745;28;20022;-65
2021/07/27 06:11:37;;;;;;;7.90;3.40;;;;;;;;;;5009496;28;20022;-66
2021/07/27 06:14:04;;;;;;;8.23;3.30;;;;;;;;;;5009746;28;20506;-65
2021/07/27 06:16:32;;;;;;;5.03;3.10;;;;;;;;;;5009682;28;20500;-65
2021/07/27 06:18:59;;;;;;;5.63;3.50;;;;;;;;;;5014988;28;20026;-65
2021/07/27 06:21:26;;;;;;;6.83;3.90;;;;;;;;;;5014689;28;20028;-65
2021/07/27 06:23:52;;;;;;;6.10;3.57;;;;;;;;;;5014763;28;20099;-65
2021/07/27 06:26:19;;;;;;;5.87;3.10;;;;;;;;;;5014671;28;20055;-65
2021/07/27 06:28:46;;;;;;;4.60;2.60;;;;;;;;;;5014353;28;20022;-66
2021/07/27 06:31:12;;;;;;;5.90;3.20;;;;;;;;;;5009382;28;20053;-65
2021/07/27 06:33:42;;;;;;;6.93;3.47;;;;;;;;;;5023913;28;20103;-65
2021/07/27 06:36:09;;;;;;;4.27;2.47;;;;;;;;;;5029125;28;20444;-62
2021/07/27 06:38:36;;;;;;;7.33;3.13;;;;;;;;;;5028751;28;20060;-63
2021/07/27 06:41:07;;;;;;;8.60;3.70;;;;;;;;;;5033708;28;20024;-62
2021/07/27 06:43:34;;;;;;;5.47;2.83;;;;;;;;;;5034082;28;20590;-63
2021/07/27 06:46:01;;;;;;;4.50;3.50;;;;;;;;;;5015843;28;20120;-62
2021/07/27 06:48:28;;;;;;;9.20;3.17;;;;;;;;;;5034092;28;20029;-62
2021/07/27 06:50:55;;;;;;;10.27;3.77;;;;;;;;;;5034069;28;20079;-63
2021/07/27 06:53:26;;;;;;;7.60;4.03;;;;;;;;;;5029307;28;20093;-62
2021/07/27 06:55:53;;;;;;;6.10;3.10;;;;;;;;;;5028880;28;20464;-62
2021/07/27 06:58:20;;;;;;;7.53;3.70;;;;;;;;;;5027765;28;20029;-63
2021/07/27 07:01:28;;;;;;;7.13;4.13;;;;;;;;;;5028584;28;20630;-63
2021/07/27 07:04:05;;;;;;;7.00;3.60;;;;;;;;;;4982231;28;20446;-63
2021/07/27 07:07:02;;;;;;;9.60;3.63;;;;;;;;;;5016599;28;20043;-62
2021/07/27 07:10:05;;;;;;;6.73;4.00;;;;;;;;;;5029646;28;20068;-62
2021/07/27 07:12:49;;;;;;;5.47;3.87;;;;;;;;;;4953296;29;20096;-63
2021/07/27 07:15:31;;;;;;;7.97;3.73;;;;;;;;;;4951806;28;20488;-63
2021/07/27 07:18:43;;;;;;;5.97;4.13;;;;;;;;;;5027510;28;20037;-63
2021/07/27 07:21:33;;;;;;;5.70;3.77;;;;;;;;;;5025447;28;20048;-63
2021/07/27 07:24:14;;;;;;;;;;;;;;;;;;5010257;28;20033;-62
2021/07/27 07:27:30;;;;;;;8.10;4.33;;;;;;;;;;5031631;28;20001;-64
2021/07/27 07:30:33;;;;;;;10.63;5.07;;;;;;;;;;5033101;28;20041;-62
2021/07/27 07:33:29;;;;;;;11.43;4.83;;;;;;;;;;5030238;28;20152;-62
2021/07/27 07:36:26;;;;;;;6.73;4.67;;;;;;;;;;5033054;28;20042;-62
2021/07/27 07:38:53;;;;;;;6.97;4.70;;;;;;;;;;5007986;28;20049;-63
2021/07/27 07:41:28;;;;;;;12.90;5.50;;;;;;;;;;5009835;28;20024;-62
2021/07/27 07:44:21;;;;;;;9.27;5.57;;;;;;;;;;5012087;28;20025;-63
2021/07/27 07:46:55;;;;;;;9.30;5.60;;;;;;;;;;5028728;28;20037;-62
2021/07/27 07:49:34;;;;;;;9.13;5.80;;;;;;;;;;5032659;28;20033;-63
2021/07/27 07:52:21;;;;;;;8.53;5.70;;;;;;;;;;5032951;28;20108;-62
2021/07/27 07:55:29;;;;;;;11.80;6.23;;;;;;;;;;5032509;28;20109;-62
2021/07/27 07:58:28;;;;;;;7.13;5.40;;;;;;;;;;5032700;28;20090;-63
2021/07/27 08:00:59;;;;;;;9.07;5.70;;;;;;;;;;5027465;28;20033;-63
2021/07/27 08:03:26;;;;;;;8.93;6.30;;;;;;;;;;4968511;28;20041;-62
2021/07/27 08:06:00;;;;;;;7.40;5.47;;;;;;;;;;4985170;28;20109;-62
2021/07/27 08:08:30;;;;;;;6.90;5.33;;;;;;;;;;4965928;28;20035;-63
2021/07/27 08:11:42;;;;;;;8.53;5.33;;;;;;;;;;4983876;28;20214;-62
2021/07/27 08:14:26;;;;;;;9.20;5.40;;;;;;;;;;4984048;28;20035;-62
2021/07/27 08:17:27;;;;;;;7.30;4.80;;;;;;;;;;4956211;28;20030;-62
2021/07/27 08:20:06;;;;;;;6.20;4.40;;;;;;;;;;4985858;28;20030;-62
2021/07/27 08:22:41;;;;;;;7.10;4.97;;;;;;;;;;4981796;28;20205;-63
2021/07/27 08:25:24;;;;;;;6.37;4.27;;;;;;;;;;4966301;28;20125;-62
2021/07/27 08:27:58;;;;;;;7.93;4.57;;;;;;;;;;4971378;28;20070;-62
2021/07/27 08:30:29;;;;;;;7.37;4.20;;;;;;;;;;4965182;28;20137;-63
2021/07/27 08:32:56;;;;;;;8.70;4.90;;;;;;;;;;4970217;28;20569;-62
2021/07/27 08:35:23;;;;;;;7.53;4.53;;;;;;;;;;4971529;28;20126;-62
2021/07/27 08:37:50;;;;;;;10.67;5.33;;;;;;;;;;4971496;28;20034;-63
2021/07/27 08:40:18;;;;;;;13.80;4.07;;;;;;;;;;4971262;28;20585;-63
2021/07/27 08:42:47;;;;;;;6.33;4.20;;;;;;;;;;4971060;28;20402;-63
2021/07/27 08:45:14;;;;;;;8.43;5.27;;;;;;;;;;4966741;28;20027;-63
2021/07/27 08:47:41;;;;;;;8.43;5.80;;;;;;;;;;4965780;28;20042;-63
2021/07/27 08:50:09;;;;;;;7.80;4.53;;;;;;;;;;4965557;28;20585;-62
2021/07/27 08:52:36;;;;;;;6.30;4.70;;;;;;;;;;4966585;28;20524;-62
2021/07/27 08:55:05;;;;;;;8.00;4.43;;;;;;;;;;4969485;28;20039;-62
2021/07/27 08:57:32;;;;;;;7.00;4.90;;;;;;;;;;4971093;28;20470;-63
2021/07/27 08:59:59;;;;;;;5.67;4.20;;;;;;;;;;4988501;28;20489;-63
2021/07/27 09:02:26;;;;;;;7.37;4.37;;;;;;;;;;5012381;28;20037;-63
2021/07/27 09:05:04;;;;;;;5.60;3.83;;;;;;;;;;5012233;28;20473;-62
2021/07/27 09:07:30;;;;;;;5.47;3.70;;;;;;;;;;5007809;28;20164;-63
2021/07/27 09:09:57;;;;;;;9.40;4.10;;;;;;;;;;5007040;28;20022;-63
2021/07/27 09:12:24;;;;;;;9.20;4.70;;;;;;;;;;5006943;28;20038;-63
2021/07/27 09:14:51;;;;;;;6.27;4.53;;;;;;;;;;5006767;28;20037;-62
2021/07/27 09:17:26;;;;;;;11.77;4.63;;;;;;;;;;5010035;28;20480;-63
2021/07/27 09:19:53;;;;;;;5.50;4.05;;;;;;;;;;5012022;28;20018;-62
2021/07/27 09:22:20;;;;;;;8.30;3.80;;;;;;;;;;5013076;28;20112;-63
2021/07/27 09:24:47;;;;;;;6.90;4.43;;;;;;;;;;5015837;28;20088;-62
2021/07/27 09:27:13;;;;;;;6.23;4.20;;;;;;;;;;5015760;28;20042;-62
2021/07/27 09:29:45;;;;;;;6.47;4.03;;;;;;;;;;5012284;28;20112;-62
2021/07/27 09:32:22;;;;;;;6.37;4.13;;;;;;;;;;5010457;28;20018;-63
2021/07/27 09:34:49;;;;;;;6.43;3.97;;;;;;;;;;5010415;28;20472;-62
2021/07/27 09:37:17;;;;;;;5.20;3.83;;;;;;;;;;5010508;28;20034;-62
2021/07/27 09:39:44;;;;;;;6.10;3.13;;;;;;;;;;5013333;28;20030;-63
2021/07/27 09:42:13;;;;;;;7.57;3.70;;;;;;;;;;5022396;28;20029;-62
2021/07/27 09:44:41;;;;;;;5.97;3.63;;;;;;;;;;5034936;28;20026;-62
2021/07/27 09:47:08;;;;;;;8.30;4.10;;;;;;;;;;5035041;28;20030;-63
2021/07/27 09:49:35;;;;;;;7.80;3.90;;;;;;;;;;5035366;28;20480;-62
2021/07/27 09:52:02;;;;;;;7.97;3.77;;;;;;;;;;5018334;28;20755;-63
2021/07/27 09:54:29;;;;;;;5.80;3.87;;;;;;;;;;5010139;28;20030;-62
2021/07/27 09:56:56;;;;;;;12.87;4.40;;;;;;;;;;5010078;28;20029;-62
2021/07/27 09:59:24;;;;;;;4.97;3.80;;;;;;;;;;5010120;28;20025;-63
2021/07/27 10:02:05;;;;;;;6.30;3.93;;;;;;;;;;5012323;28;20026;-63
2021/07/27 10:04:36;;;;;;;5.03;3.97;;;;;;;;;;5015102;28;20042;-62
2021/07/27 10:07:03;;;;;;;6.97;3.57;;;;;;;;;;5015044;28;20034;-62
2021/07/27 10:09:34;;;;;;;6.13;3.50;;;;;;;;;;5015230;28;20086;-62
2021/07/27 10:12:12;;;;;;;5.53;3.33;;;;;;;;;;5015059;28;20026;-62
2021/07/27 10:14:40;;;;;;;5.07;3.83;;;;;;;;;;5020851;28;20774;-63
2021/07/27 10:17:08;;;;;;;5.20;3.50;;;;;;;;;;5029560;28;20053;-62
2021/07/27 10:19:56;;;;;;;8.57;4.07;;;;;;;;;;5029538;28;20026;-62
2021/07/27 10:22:31;;;;;;;5.43;3.70;;;;;;;;;;5028988;28;20044;-62
2021/07/27 10:24:58;;;;;;;5.95;3.80;;;;;;;;;;5033551;28;20033;-62
2021/07/27 10:27:25;;;;;;;4.73;3.60;;;;;;;;;;5016885;28;20030;-62
2021/07/27 10:29:52;;;;;;;8.03;4.10;;;;;;;;;;5014837;28;20029;-61
2021/07/27 10:32:21;;;;;;;6.30;4.10;;;;;;;;;;5014683;28;20033;-62
2021/07/27 10:34:52;;;;;;;6.57;3.67;;;;;;;;;;5014549;28;20021;-62
2021/07/27 10:37:19;;;;;;;10.77;4.40;;;;;;;;;;5009781;28;20022;-62
2021/07/27 10:39:48;;;;;;;6.03;4.07;;;;;;;;;;5009111;28;20030;-62
2021/07/27 10:42:15;;;;;;;5.87;3.40;;;;;;;;;;5018465;28;20472;-62
2021/07/27 10:44:41;;;;;;;6.10;4.20;;;;;;;;;;5028907;28;20025;-62
2021/07/27 10:47:09;;;;;;;6.20;4.17;;;;;;;;;;5032667;28;20183;-61
2021/07/27 10:49:35;;;;;;;5.60;3.30;;;;;;;;;;5034097;28;20492;-62
2021/07/27 10:52:03;;;;;;;5.10;3.60;;;;;;;;;;5033712;28;20057;-62
2021/07/27 10:54:31;;;;;;;4.17;3.27;;;;;;;;;;5034143;28;20075;-61
2021/07/27 10:57:02;;;;;;;7.70;3.77;;;;;;;;;;5033928;28;20036;-61
2021/07/27 10:59:32;;;;;;;8.87;3.30;;;;;;;;;;5029608;28;20503;-61
2021/07/27 11:02:00;;;;;;;4.30;2.80;;;;;;;;;;5026958;28;20040;-62
2021/07/27 11:04:27;;;;;;;4.60;3.10;;;;;;;;;;5028600;28;20028;-62
2021/07/27 11:06:55;;;;;;;6.77;3.27;;;;;;;;;;5028266;28;20044;-61
2021/07/27 11:09:21;;;;;;;6.80;3.40;;;;;;;;;;5032144;28;20468;-62
2021/07/27 11:11:50;;;;;;;5.80;3.63;;;;;;;;;;5033765;28;20088;-62
2021/07/27 11:14:23;;;;;;;4.87;3.60;;;;;;;;;;5031780;28;20087;-62
2021/07/27 11:16:50;;;;;;;6.53;3.57;;;;;;;;;;5027610;28;20053;-62
2021/07/27 11:19:27;;;;;;;4.23;2.70;;;;;;;;;;5013820;28;20025;-61
2021/07/27 11:21:55;;;;;;;3.97;2.67;;;;;;;;;;5008950;28;20097;-62
2021/07/27 11:24:22;;;;;;;10.00;3.40;;;;;;;;;;5022834;28;20120;-62
2021/07/27 11:26:53;;;;;;;7.50;3.57;;;;;;;;;;5014928;28;20034;-61
2021/07/27 11:29:20;;;;;;;5.67;2.53;;;;;;;;;;5008015;28;20368;-63
2021/07/27 11:31:47;;;;;;;9.90;3.00;;;;;;;;;;5011884;28;20022;-63
2021/07/27 11:34:25;;;;;;;4.37;3.23;;;;;;;;;;4995586;28;20383;-63
2021/07/27 11:36:52;;;;;;;5.50;3.60;;;;;;;;;;5013142;28;20476;-62
2021/07/27 11:39:19;;;;;;;7.07;3.60;;;;;;;;;;5013095;28;20420;-62
2021/07/27 11:41:57;;;;;;;8.27;3.60;;;;;;;;;;5013050;28;20026;-62
2021/07/27 11:44:24;;;;;;;6.37;3.03;;;;;;;;;;5010461;28;20038;-65
2021/07/27 11:46:52;;;;;;;5.70;3.33;;;;;;;;;;5013125;28;20068;-63
2021/07/27 11:49:18;;;;;;;6.37;3.70;;;;;;;;;;5027436;28;20049;-62
2021/07/27 11:51:45;;;;;;;5.07;3.10;;;;;;;;;;5027591;28;20353;-62
2021/07/27 11:54:12;;;;;;;5.13;3.30;;;;;;;;;;5031397;28;20029;-63
2021/07/27 11:56:48;;;;;;;6.77;3.60;;;;;;;;;;5032817;28;20039;-62
2021/07/27 11:59:24;;;;;;;6.17;3.87;;;;;;;;;;5032593;28;20037;-62
2021/07/27 12:01:50;;;;;;;7.30;3.53;;;;;;;;;;5032522;28;20028;-62
2021/07/27 12:04:19;;;;;;;5.47;3.50;;;;;;;;;;5032399;28;20033;-63
2021/07/27 12:06:46;;;;;;;6.77;3.30;;;;;;;;;;5027671;28;20025;-65
2021/07/27 12:09:13;;;;;;;6.43;3.90;;;;;;;;;;5027261;28;20021;-63
2021/07/27 12:11:40;;;;;;;7.17;3.70;;;;;;;;;;5027042;28;20111;-62
2021/07/27 12:14:06;;;;;;;10.23;3.30;;;;;;;;;;5027206;28;20026;-62
2021/07/27 12:16:33;;;;;;;5.57;3.67;;;;;;;;;;5028091;28;22075;-62
2021/07/27 12:19:00;;;;;;;5.20;3.90;;;;;;;;;;5012483;28;20476;-62
2021/07/27 12:21:27;;;;;;;5.93;3.40;;;;;;;;;;5017734;28;20439;-62
2021/07/27 12:23:54;;;;;;;8.03;4.20;;;;;;;;;;5032321;28;20026;-62
2021/07/27 12:26:20;;;;;;;8.20;3.97;;;;;;;;;;5023132;28;20041;-63
2021/07/27 12:28:47;;;;;;;6.57;3.90;;;;;;;;;;5008286;28;20026;-62
2021/07/27 12:31:14;;;;;;;17.43;4.13;;;;;;;;;;5007132;28;20709;-63
2021/07/27 12:33:41;;;;;;;7.60;4.00;;;;;;;;;;5006668;28;20041;-63
2021/07/27 12:36:08;;;;;;;7.07;4.13;;;;;;;;;;5009848;28;20368;-64
2021/07/27 12:38:35;;;;;;;6.43;3.50;;;;;;;;;;5028222;28;20628;-63
2021/07/27 12:41:02;;;;;;;5.53;4.13;;;;;;;;;;5031864;28;20399;-63
2021/07/27 12:43:29;;;;;;;6.53;3.60;;;;;;;;;;5032066;28;20025;-62
2021/07/27 12:45:57;;;;;;;8.63;4.10;;;;;;;;;;5031916;28;20030;-63
2021/07/27 12:48:24;;;;;;;7.80;3.90;;;;;;;;;;5032019;28;20442;-63
2021/07/27 12:50:50;;;;;;;10.13;3.97;;;;;;;;;;5026975;28;20427;-63
2021/07/27 12:53:17;;;;;;;5.43;3.50;;;;;;;;;;5006948;28;20030;-62
2021/07/27 12:55:44;;;;;;;5.93;3.73;;;;;;;;;;5006766;28;20030;-63
2021/07/27 12:58:11;;;;;;;6.20;3.53;;;;;;;;;;4992320;28;20366;-62
2021/07/27 13:00:38;;;;;;;7.80;3.87;;;;;;;;;;5013691;28;20040;-63
2021/07/27 13:03:04;;;;;;;10.40;4.37;;;;;;;;;;5016237;28;20022;-63
2021/07/27 13:05:34;;;;;;;11.37;4.87;;;;;;;;;;5026808;28;20510;-62
2021/07/27 13:08:00;;;;;;;11.03;5.53;;;;;;;;;;5017250;28;20556;-63
2021/07/27 13:10:27;;;;;;;9.60;4.73;;;;;;;;;;5016217;28;20026;-63
2021/07/27 13:12:54;;;;;;;10.97;5.00;;;;;;;;;;5013099;28;20026;-63
2021/07/27 13:15:21;;;;;;;10.63;4.50;;;;;;;;;;5010896;28;20085;-63
2021/07/27 13:17:47;;;;;;;10.57;5.20;;;;;;;;;;5010796;28;20088;-63
2021/07/27 13:20:14;;;;;;;10.83;4.63;;;;;;;;;;5010908;28;20384;-64
2021/07/27 13:22:41;;;;;;;21.37;9.77;;;;;;;;;;5012703;28;20392;-63
2021/07/27 13:25:08;;;;;;;14.80;9.00;;;;;;;;;;5016083;28;20084;-64
2021/07/27 13:27:36;;;;;;;15.67;8.07;;;;;;;;;;5017069;28;20419;-63
2021/07/27 13:30:03;;;;;;;18.33;6.47;;;;;;;;;;5035393;28;20021;-64
2021/07/27 13:32:30;;;;;;;18.73;5.77;;;;;;;;;;5035553;28;20053;-63
2021/07/27 13:34:57;;;;;;;10.13;5.83;;;;;;;;;;5032915;28;20025;-66
2021/07/27 13:37:24;;;;;;;10.60;5.13;;;;;;;;;;5029637;28;20120;-65
2021/07/27 13:39:50;;;;;;;18.93;5.00;;;;;;;;;;5029734;28;20029;-62
2021/07/27 13:42:17;;;;;;;19.73;4.73;;;;;;;;;;5030266;28;20032;-64
2021/07/27 13:44:44;;;;;;;9.93;4.67;;;;;;;;;;5031853;28;20022;-65
2021/07/27 13:47:11;;;;;;;7.33;3.47;;;;;;;;;;5035079;28;20079;-65
2021/07/27 13:49:38;;;;;;;7.67;4.00;;;;;;;;;;5035261;28;20026;-62
2021/07/27 13:52:09;;;;;;;8.60;4.00;;;;;;;;;;5035018;28;20043;-63
2021/07/27 13:54:37;;;;;;;9.10;3.80;;;;;;;;;;5035212;28;20048;-67
2021/07/27 13:57:05;;;;;;;5.40;3.40;;;;;;;;;;5032807;28;20076;-64
2021/07/27 13:59:33;;;;;;;5.67;3.43;;;;;;;;;;5029697;28;20036;-65
2021/07/27 14:01:59;;;;;;;5.17;3.03;;;;;;;;;;5029778;28;20025;-63
2021/07/27 14:04:31;;;;;;;11.57;4.30;;;;;;;;;;5029678;28;20091;-62
2021/07/27 14:06:58;;;;;;;7.47;4.30;;;;;;;;;;5029417;28;20513;-65
2021/07/27 14:09:25;;;;;;;7.80;3.87;;;;;;;;;;5034620;28;20049;-67
2021/07/27 14:11:52;;;;;;;8.93;3.37;;;;;;;;;;5032747;28;20029;-67
2021/07/27 14:14:18;;;;;;;4.90;3.40;;;;;;;;;;5034534;28;20407;-65
2021/07/27 14:16:45;;;;;;;5.93;3.33;;;;;;;;;;5034621;28;20379;-65
2021/07/27 14:19:12;;;;;;;16.60;3.40;;;;;;;;;;5032846;28;20349;-67
2021/07/27 14:21:39;;;;;;;5.70;3.47;;;;;;;;;;5016911;28;20124;-65
2021/07/27 14:24:06;;;;;;;8.03;3.80;;;;;;;;;;5009584;28;20029;-65
2021/07/27 14:26:33;;;;;;;11.47;3.63;;;;;;;;;;5009502;28;20034;-66
2021/07/27 14:28:59;;;;;;;6.13;3.23;;;;;;;;;;5010255;28;20105;-65
2021/07/27 14:31:26;;;;;;;5.50;3.30;;;;;;;;;;5015017;28;20026;-65
2021/07/27 14:33:55;;;;;;;6.87;3.90;;;;;;;;;;5014743;28;20041;-66
2021/07/27 14:36:22;;;;;;;8.33;3.90;;;;;;;;;;5014960;28;20420;-66
2021/07/27 14:38:49;;;;;;;5.93;3.13;;;;;;;;;;5014672;28;20428;-66
2021/07/27 14:41:16;;;;;;;5.13;3.13;;;;;;;;;;5013201;28;20026;-67
2021/07/27 14:43:43;;;;;;;7.10;3.37;;;;;;;;;;5009061;28;20101;-66
2021/07/27 14:46:09;;;;;;;6.60;3.33;;;;;;;;;;5009149;28;20053;-67
2021/07/27 14:48:39;;;;;;;5.97;3.43;;;;;;;;;;5009137;28;20125;-67
2021/07/27 14:51:06;;;;;;;9.37;3.53;;;;;;;;;;5015478;28;20053;-66
2021/07/27 14:53:33;;;;;;;9.97;3.83;;;;;;;;;;5018230;28;20026;-66
2021/07/27 14:56:00;;;;;;;8.13;3.40;;;;;;;;;;5014632;28;20513;-66
2021/07/27 14:58:28;;;;;;;13.00;3.33;;;;;;;;;;5034072;28;20060;-66
2021/07/27 15:00:55;;;;;;;8.10;3.47;;;;;;;;;;5033470;28;20048;-67
2021/07/27 15:03:21;;;;;;;6.63;3.07;;;;;;;;;;5033209;28;20047;-70
2021/07/27 15:05:48;;;;;;;6.80;2.90;;;;;;;;;;5028461;28;20052;-69
2021/07/27 15:08:15;;;;;;;4.63;3.03;;;;;;;;;;5028566;28;20365;-69
2021/07/27 15:10:42;;;;;;;8.43;3.43;;;;;;;;;;5028338;28;20072;-69
2021/07/27 15:13:08;;;;;;;10.13;3.00;;;;;;;;;;5009943;28;20477;-69
2021/07/27 15:15:35;;;;;;;5.80;3.43;;;;;;;;;;5014124;28;20026;-69